Time;durP1;ratioP1;P1;durP2;ratioP2;P2;SDS_P1;SDS_P2;PMS_P1;PMS_P2;Temp;Humidity;BMP_temperature;BMP_pressure;BME280_temperature;BME280_humidity;BME280_pressure;Samples;Min_cycle;Max_cycle;Signal;HPM_P1;HPM_P2
2022/07/14 00:02:03;;;;;;;;;;;19.80;58.50;;;;;;5023507;28;88207;-54
2022/07/14 00:04:29;;;;;;;;;;;19.80;58.40;;;;;;5024185;28;87445;-53
2022/07/14 00:06:54;;;;;;;;;;;19.80;58.40;;;;;;5024019;28;87325;-55
2022/07/14 00:09:20;;;;;;;;;;;19.80;58.40;;;;;;5023662;28;88009;-53
2022/07/14 00:11:45;;;;;;;;;;;19.80;58.40;;;;;;5023947;28;87068;-53
2022/07/14 00:14:11;;;;;;;;;;;19.80;58.40;;;;;;5024330;28;87774;-53
2022/07/14 00:16:37;;;;;;;;;;;19.70;58.30;;;;;;5023868;28;87620;-52
2022/07/14 00:19:03;;;;;;;;;;;19.70;58.40;;;;;;5026838;28;87009;-53
2022/07/14 00:21:28;;;;;;;;;;;19.70;58.30;;;;;;5023099;28;87830;-52
2022/07/14 00:23:54;;;;;;;;;;;19.70;58.40;;;;;;5023241;28;88138;-55
2022/07/14 00:26:20;;;;;;;;;;;19.70;58.40;;;;;;5023858;28;87525;-54
2022/07/14 00:28:45;;;;;;;;;;;19.70;58.40;;;;;;5023518;28;87750;-53
2022/07/14 00:31:11;;;;;;;;;;;19.70;58.40;;;;;;5023534;28;87138;-56
2022/07/14 00:33:38;;;;;;;;;;;19.70;58.40;;;;;;5023627;28;87424;-51
2022/07/14 00:36:03;;;;;;;;;;;19.60;58.30;;;;;;5022995;28;89282;-55
2022/07/14 00:38:29;;;;;;;;;;;19.60;58.40;;;;;;5026512;28;87194;-50
2022/07/14 00:40:55;;;;;;;;;;;19.60;58.40;;;;;;5023646;28;87128;-51
2022/07/14 00:43:20;;;;;;;;;;;19.60;58.40;;;;;;5023469;28;87121;-54
2022/07/14 00:45:46;;;;;;;;;;;19.60;58.40;;;;;;5023461;28;87451;-55
2022/07/14 00:48:12;;;;;;;;;;;19.60;58.40;;;;;;5021981;28;89184;-52
2022/07/14 00:50:41;;;;;;;;;;;19.60;58.40;;;;;;5022972;28;87167;-52
2022/07/14 00:53:07;;;;;;;;;;;19.60;58.40;;;;;;5023177;28;87386;-54
2022/07/14 00:55:33;;;;;;;;;;;19.50;58.50;;;;;;5022757;28;89101;-56
2022/07/14 00:57:59;;;;;;;;;;;19.50;58.40;;;;;;5023371;28;87113;-54
2022/07/14 01:00:24;;;;;;;;;;;19.50;58.40;;;;;;5025564;28;87465;-52
2022/07/14 01:02:50;;;;;;;;;;;19.50;58.40;;;;;;5023015;28;87176;-57
2022/07/14 01:05:15;;;;;;;;;;;19.50;58.40;;;;;;5023793;28;87466;-51
2022/07/14 01:07:41;;;;;;;;;;;19.50;58.30;;;;;;5022857;28;88276;-53
2022/07/14 01:10:07;;;;;;;;;;;19.40;58.30;;;;;;5022989;28;87124;-51
2022/07/14 01:12:32;;;;;;;;;;;19.50;58.20;;;;;;5022148;28;88749;-50
2022/07/14 01:14:58;;;;;;;;;;;19.40;58.30;;;;;;5022555;28;88039;-54
2022/07/14 01:17:23;;;;;;;;;;;19.40;58.30;;;;;;5023316;28;87441;-55
2022/07/14 01:19:49;;;;;;;;;;;19.40;58.30;;;;;;5022888;28;88126;-54
2022/07/14 01:22:14;;;;;;;;;;;19.30;59.00;;;;;;5025379;28;89394;-53
2022/07/14 01:24:40;;;;;;;;;;;19.40;58.50;;;;;;5023171;28;87660;-50
2022/07/14 01:27:05;;;;;;;;;;;19.40;58.40;;;;;;5022312;28;87283;-56
2022/07/14 01:29:31;;;;;;;;;;;19.30;58.50;;;;;;5023326;28;86375;-55
2022/07/14 01:31:57;;;;;;;;;;;19.30;58.40;;;;;;5021663;28;87423;-54
2022/07/14 01:34:23;;;;;;;;;;;19.30;58.40;;;;;;5022303;28;88173;-54
2022/07/14 01:36:49;;;;;;;;;;;19.30;58.30;;;;;;5022209;28;88158;-54
2022/07/14 01:39:14;;;;;;;;;;;19.30;58.40;;;;;;5022486;28;89651;-50
2022/07/14 01:41:40;;;;;;;;;;;19.30;58.40;;;;;;5022450;28;88081;-53
2022/07/14 01:44:06;;;;;;;;;;;19.30;58.50;;;;;;5025524;28;87084;-49
2022/07/14 01:46:32;;;;;;;;;;;19.20;58.50;;;;;;5021583;28;88023;-49
2022/07/14 01:48:58;;;;;;;;;;;19.20;58.40;;;;;;5022466;28;87111;-49
2022/07/14 01:51:24;;;;;;;;;;;19.20;58.50;;;;;;5022524;28;87305;-51
2022/07/14 01:53:49;;;;;;;;;;;19.20;58.40;;;;;;5022818;28;87343;-52
2022/07/14 01:56:15;;;;;;;;;;;19.20;58.50;;;;;;5022524;28;87148;-53
2022/07/14 01:58:40;;;;;;;;;;;19.20;58.50;;;;;;5022374;28;87571;-50
2022/07/14 02:03:54;;;;;;;;;;;19.10;58.50;;;;;;5020466;28;87038;-50
2022/07/14 02:06:19;;;;;;;;;;;19.10;58.50;;;;;;5025177;28;87450;-55
2022/07/14 02:08:45;;;;;;;;;;;19.10;58.40;;;;;;5022200;28;87116;-51
2022/07/14 02:13:54;;;;;;;;;;;19.10;58.40;;;;;;5021951;28;88093;-52
2022/07/14 02:16:20;;;;;;;;;;;19.10;58.50;;;;;;5022171;28;87118;-54
2022/07/14 02:18:45;;;;;;;;;;;19.00;58.40;;;;;;5022726;28;86786;-53
2022/07/14 02:21:11;;;;;;;;;;;19.00;58.40;;;;;;5021894;28;88225;-55
2022/07/14 02:23:36;;;;;;;;;;;19.00;58.40;;;;;;5022150;28;86973;-53
2022/07/14 02:26:02;;;;;;;;;;;19.00;58.30;;;;;;5021361;28;88831;-52
2022/07/14 02:28:27;;;;;;;;;;;18.90;58.40;;;;;;5024525;28;87947;-53
2022/07/14 02:30:53;;;;;;;;;;;18.90;58.30;;;;;;5022113;28;87448;-54
2022/07/14 02:33:18;;;;;;;;;;;19.00;58.30;;;;;;5021673;28;88207;-54
2022/07/14 02:35:44;;;;;;;;;;;18.90;58.40;;;;;;5021940;28;87102;-51
2022/07/14 02:38:10;;;;;;;;;;;19.00;58.40;;;;;;5021876;28;87193;-50
2022/07/14 02:40:36;;;;;;;;;;;18.90;58.40;;;;;;5021464;28;88460;-51
2022/07/14 02:43:02;;;;;;;;;;;18.90;58.30;;;;;;5022843;28;86529;-55
2022/07/14 02:45:27;;;;;;;;;;;18.90;58.40;;;;;;5025537;28;87326;-53
2022/07/14 02:47:53;;;;;;;;;;;18.80;58.30;;;;;;5027331;28;88082;-54
2022/07/14 02:50:18;;;;;;;;;;;18.80;58.40;;;;;;5024533;28;88036;-53
2022/07/14 02:52:44;;;;;;;;;;;18.80;58.40;;;;;;5024994;28;87889;-56
2022/07/14 02:55:10;;;;;;;;;;;18.80;58.50;;;;;;5025313;28;87141;-53
2022/07/14 02:57:36;;;;;;;;;;;18.80;58.40;;;;;;5024928;28;88805;-52
2022/07/14 03:00:02;;;;;;;;;;;18.80;58.50;;;;;;5024644;28;87874;-51
2022/07/14 03:02:27;;;;;;;;;;;18.80;58.50;;;;;;5025086;28;88252;-56
2022/07/14 03:04:53;;;;;;;;;;;18.80;58.40;;;;;;5025205;28;87524;-53
2022/07/14 03:07:18;;;;;;;;;;;18.70;58.40;;;;;;5025013;28;88670;-54
2022/07/14 03:09:44;;;;;;;;;;;18.70;58.40;;;;;;5027931;28;86871;-54
2022/07/14 03:12:09;;;;;;;;;;;18.70;58.40;;;;;;5024482;28;88183;-53
2022/07/14 03:14:35;;;;;;;;;;;18.70;58.50;;;;;;5024427;28;88389;-52
2022/07/14 03:17:00;;;;;;;;;;;18.70;58.40;;;;;;5024865;28;88505;-51
2022/07/14 03:19:26;;;;;;;;;;;18.70;58.40;;;;;;5024425;28;89545;-52
2022/07/14 03:21:52;;;;;;;;;;;18.60;58.40;;;;;;5025054;28;87131;-52
2022/07/14 03:24:20;;;;;;;;;;;18.60;58.40;;;;;;5024716;28;87401;-51
2022/07/14 03:26:46;;;;;;;;;;;18.60;58.40;;;;;;5023808;28;89179;-53
2022/07/14 03:29:11;;;;;;;;;;;18.60;58.40;;;;;;5024698;28;87278;-54
2022/07/14 03:31:37;;;;;;;;;;;18.60;58.40;;;;;;5027854;28;87373;-53
2022/07/14 03:46:57;;;;;;;;;;;18.60;57.90;;;;;;5044936;28;80181;-44
2022/07/14 03:49:23;;;;;;;;;;;18.50;58.50;;;;;;5043987;28;80228;-45
2022/07/14 03:51:49;;;;;;;;;;;18.50;58.50;;;;;;5043809;28;80864;-45
2022/07/14 03:54:15;;;;;;;;;;;18.50;58.50;;;;;;5043492;28;82567;-45
2022/07/14 03:56:40;;;;;;;;;;;18.50;58.50;;;;;;5043686;28;80107;-44
2022/07/14 03:59:06;;;;;;;;;;;18.40;58.50;;;;;;5043381;27;83765;-45
2022/07/14 04:01:31;;;;;;;;;;;18.50;58.50;;;;;;5043706;28;81214;-42
2022/07/14 04:03:57;;;;;;;;;;;18.40;58.40;;;;;;5043826;28;80172;-44
2022/07/14 04:06:23;;;;;;;;;;;18.50;58.50;;;;;;5046294;27;80497;-45
2022/07/14 04:08:48;;;;;;;;;;;18.40;58.50;;;;;;5043142;27;80425;-44
2022/07/14 04:11:14;;;;;;;;;;;18.40;58.50;;;;;;5043385;27;81634;-44
2022/07/14 04:13:40;;;;;;;;;;;18.40;58.50;;;;;;5043211;27;82635;-44
2022/07/14 04:16:05;;;;;;;;;;;18.40;58.50;;;;;;5043248;28;80265;-44
2022/07/14 04:18:31;;;;;;;;;;;18.40;58.50;;;;;;5043392;27;80483;-44
2022/07/14 04:20:57;;;;;;;;;;;18.30;58.40;;;;;;5042938;28;81808;-44
2022/07/14 04:23:22;;;;;;;;;;;18.30;58.50;;;;;;5043008;27;80410;-45
2022/07/14 04:25:48;;;;;;;;;;;18.40;58.50;;;;;;5043346;27;80220;-44
2022/07/14 04:28:14;;;;;;;;;;;18.30;58.50;;;;;;5045992;28;81196;-43
2022/07/14 04:30:39;;;;;;;;;;;18.40;58.60;;;;;;5043277;28;80172;-45
2022/07/14 04:33:05;;;;;;;;;;;18.30;58.50;;;;;;5043137;28;81639;-44
2022/07/14 04:35:30;;;;;;;;;;;18.30;58.60;;;;;;5042893;28;80321;-44
2022/07/14 04:37:56;;;;;;;;;;;18.30;58.60;;;;;;5042985;28;81066;-44
2022/07/14 04:40:21;;;;;;;;;;;18.30;58.60;;;;;;5043062;28;81362;-44
2022/07/14 04:42:47;;;;;;;;;;;18.30;58.60;;;;;;5043231;28;80490;-45
2022/07/14 04:45:12;;;;;;;;;;;18.30;58.60;;;;;;5042441;28;80183;-46
2022/07/14 04:47:38;;;;;;;;;;;18.30;58.60;;;;;;5031006;28;80570;-44
2022/07/14 04:52:48;;;;;;;;;;;18.20;58.60;;;;;;5029427;28;80569;-44
2022/07/14 04:55:15;;;;;;;;;;;18.30;58.60;;;;;;5029161;28;80415;-44
2022/07/14 04:57:40;;;;;;;;;;;18.20;58.50;;;;;;5029159;28;80938;-44
2022/07/14 05:00:06;;;;;;;;;;;18.20;58.60;;;;;;5029084;28;82500;-46
2022/07/14 05:02:32;;;;;;;;;;;18.20;58.60;;;;;;5028968;28;80201;-45
2022/07/14 05:04:58;;;;;;;;;;;18.20;58.70;;;;;;5029328;28;80275;-44
2022/07/14 05:07:24;;;;;;;;;;;18.30;58.60;;;;;;5029073;28;81373;-44
2022/07/14 05:09:49;;;;;;;;;;;18.30;58.60;;;;;;5029327;28;80329;-44
2022/07/14 05:12:16;;;;;;;;;;;18.20;58.60;;;;;;5031741;28;80243;-44
2022/07/14 05:14:42;;;;;;;;;;;18.20;58.70;;;;;;5028948;28;80562;-44
2022/07/14 05:17:07;;;;;;;;;;;18.20;58.80;;;;;;5028978;28;80581;-44
2022/07/14 05:19:33;;;;;;;;;;;18.20;58.80;;;;;;5028805;28;80447;-44
2022/07/14 05:21:58;;;;;;;;;;;18.20;58.80;;;;;;5028339;28;80332;-44
2022/07/14 05:24:24;;;;;;;;;;;18.30;58.80;;;;;;5029010;28;80607;-44
2022/07/14 05:26:49;;;;;;;;;;;18.30;58.80;;;;;;5028995;28;81030;-44
2022/07/14 05:29:15;;;;;;;;;;;18.20;58.90;;;;;;5028867;28;80318;-43
2022/07/14 05:31:40;;;;;;;;;;;18.20;59.00;;;;;;5028875;28;81122;-46
2022/07/14 05:34:06;;;;;;;;;;;18.20;58.90;;;;;;5031291;28;81585;-45
2022/07/14 05:36:32;;;;;;;;;;;18.20;58.90;;;;;;5028076;28;82114;-44
2022/07/14 05:38:57;;;;;;;;;;;18.20;59.10;;;;;;5028723;28;81479;-44
2022/07/14 05:41:23;;;;;;;;;;;18.30;59.00;;;;;;5028795;28;80452;-44
2022/07/14 05:43:48;;;;;;;;;;;18.30;59.10;;;;;;5028956;28;80670;-44
2022/07/14 05:46:14;;;;;;;;;;;18.30;59.10;;;;;;5027971;28;81369;-44
2022/07/14 05:48:40;;;;;;;;;;;18.30;59.10;;;;;;5028551;28;80012;-44
2022/07/14 05:51:09;;;;;;;;;;;18.30;59.70;;;;;;5028536;28;81073;-44
2022/07/14 05:53:36;;;;;;;;;;;18.30;59.20;;;;;;5028166;28;82739;-44
2022/07/14 05:56:02;;;;;;;;;;;18.30;59.20;;;;;;5030928;28;80608;-44
2022/07/14 05:58:28;;;;;;;;;;;18.30;59.30;;;;;;5026945;28;82894;-44
2022/07/14 06:00:54;;;;;;;;;;;18.30;59.10;;;;;;5028245;28;80360;-43
2022/07/14 06:03:20;;;;;;;;;;;18.30;59.20;;;;;;5028423;28;80975;-44
2022/07/14 06:05:45;;;;;;;;;;;18.30;59.20;;;;;;5027830;28;81256;-45
2022/07/14 06:08:11;;;;;;;;;;;18.30;59.30;;;;;;5028354;28;80381;-44
2022/07/14 06:10:36;;;;;;;;;;;18.30;59.40;;;;;;5028143;28;81313;-43
2022/07/14 06:13:03;;;;;;;;;;;18.30;59.30;;;;;;5027602;28;82665;-44
2022/07/14 06:15:29;;;;;;;;;;;18.30;59.40;;;;;;5030703;28;80255;-46
2022/07/14 06:17:54;;;;;;;;;;;18.30;59.30;;;;;;5027811;28;82432;-44
2022/07/14 06:20:20;;;;;;;;;;;18.30;59.50;;;;;;5027825;28;80380;-44
2022/07/14 06:22:45;;;;;;;;;;;18.30;59.50;;;;;;5028074;28;81004;-44
2022/07/14 06:25:11;;;;;;;;;;;18.30;59.40;;;;;;5028047;28;81024;-43
2022/07/14 06:27:36;;;;;;;;;;;18.30;59.40;;;;;;5027956;28;80282;-44
2022/07/14 06:30:04;;;;;;;;;;;18.30;59.50;;;;;;5027905;28;80736;-43
2022/07/14 06:32:29;;;;;;;;;;;18.30;59.50;;;;;;5027568;28;83191;-44
2022/07/14 06:34:55;;;;;;;;;;;18.30;59.50;;;;;;5027749;28;80321;-44
2022/07/14 06:37:20;;;;;;;;;;;18.30;59.60;;;;;;5030115;28;80238;-43
2022/07/14 06:39:46;;;;;;;;;;;18.30;59.60;;;;;;5027768;28;80330;-46
2022/07/14 06:42:13;;;;;;;;;;;18.30;59.50;;;;;;5027819;28;80588;-47
2022/07/14 06:44:39;;;;;;;;;;;18.30;59.60;;;;;;5026769;28;82554;-43
2022/07/14 06:47:04;;;;;;;;;;;18.30;59.70;;;;;;5027315;28;80201;-44
2022/07/14 06:49:30;;;;;;;;;;;18.30;59.60;;;;;;5027720;28;80930;-44
2022/07/14 06:51:56;;;;;;;;;;;18.40;59.70;;;;;;5027060;28;82770;-43
2022/07/14 06:54:21;;;;;;;;;;;18.30;59.60;;;;;;5027602;28;80314;-43
2022/07/14 06:56:47;;;;;;;;;;;18.40;59.60;;;;;;5027621;28;80867;-43
2022/07/14 06:59:12;;;;;;;;;;;18.30;59.60;;;;;;5030094;28;81379;-44
2022/07/14 07:01:38;;;;;;;;;;;18.30;59.80;;;;;;5027539;28;80678;-44
2022/07/14 07:04:03;;;;;;;;;;;18.40;59.70;;;;;;5027083;28;81715;-44
2022/07/14 07:06:44;;;;;;;;;;;18.40;59.80;;;;;;5027064;28;80424;-44
2022/07/14 07:09:14;;;;;;;;;;;18.40;59.70;;;;;;5026794;28;82292;-44
2022/07/14 07:11:40;;;;;;;;;;;18.40;59.80;;;;;;5026812;28;82740;-44
2022/07/14 07:14:06;;;;;;;;;;;18.40;59.70;;;;;;5027127;28;80429;-44
2022/07/14 07:16:32;;;;;;;;;;;18.40;59.80;;;;;;5027178;28;80850;-44
2022/07/14 07:18:57;;;;;;;;;;;18.40;59.60;;;;;;5026871;28;81724;-46
2022/07/14 07:21:23;;;;;;;;;;;18.40;59.80;;;;;;5029809;28;80523;-44
2022/07/14 07:23:49;;;;;;;;;;;18.40;59.80;;;;;;5026951;28;81360;-43
2022/07/14 07:26:15;;;;;;;;;;;18.40;59.80;;;;;;5027065;28;80365;-44
2022/07/14 07:28:41;;;;;;;;;;;18.40;59.80;;;;;;5027181;28;80923;-43
2022/07/14 07:31:06;;;;;;;;;;;18.40;59.80;;;;;;5026993;28;81179;-44
2022/07/14 07:33:32;;;;;;;;;;;18.40;59.80;;;;;;5025250;28;80490;-44
2022/07/14 07:35:58;;;;;;;;;;;18.50;59.80;;;;;;5026577;28;81523;-44
2022/07/14 07:38:24;;;;;;;;;;;18.50;59.90;;;;;;5026848;28;80434;-44
2022/07/14 07:40:49;;;;;;;;;;;18.50;59.90;;;;;;5026858;28;80371;-44
2022/07/14 07:43:15;;;;;;;;;;;18.50;59.80;;;;;;5029621;28;80374;-44
2022/07/14 07:45:41;;;;;;;;;;;18.40;59.40;;;;;;5026446;28;80325;-44
2022/07/14 07:48:07;;;;;;;;;;;18.50;59.60;;;;;;5026830;28;80611;-43
2022/07/14 07:50:33;;;;;;;;;;;18.50;59.50;;;;;;5025466;28;82155;-43
2022/07/14 07:52:59;;;;;;;;;;;18.50;59.60;;;;;;5026300;28;81327;-44
2022/07/14 07:55:26;;;;;;;;;;;18.50;59.50;;;;;;5025439;28;82145;-44
2022/07/14 07:57:51;;;;;;;;;;;18.50;59.90;;;;;;5025269;28;83162;-42
2022/07/14 08:00:17;;;;;;;;;;;18.50;59.40;;;;;;5025036;28;83367;-44
2022/07/14 08:02:49;;;;;;;;;;;18.60;59.40;;;;;;5027785;28;83351;-44
2022/07/14 08:05:16;;;;;;;;;;;18.50;59.40;;;;;;5025234;28;81980;-44
2022/07/14 08:07:41;;;;;;;;;;;18.60;59.80;;;;;;5025367;28;82092;-45
2022/07/14 08:10:07;;;;;;;;;;;18.60;59.50;;;;;;5025265;28;82643;-44
2022/07/14 08:12:33;;;;;;;;;;;18.60;59.50;;;;;;5025253;28;82062;-44
2022/07/14 08:14:58;;;;;;;;;;;18.60;59.40;;;;;;5025367;28;82489;-44
2022/07/14 08:17:24;;;;;;;;;;;18.60;59.40;;;;;;5025583;28;82091;-44
2022/07/14 08:19:49;;;;;;;;;;;18.60;59.70;;;;;;5025228;28;82000;-42
2022/07/14 08:22:21;;;;;;;;;;;18.60;59.30;;;;;;5027361;28;82380;-40
2022/07/14 08:24:46;;;;;;;;;;;18.60;59.30;;;;;;5030803;28;84090;-42
2022/07/14 08:27:12;;;;;;;;;;;18.70;59.40;;;;;;5028782;28;83386;-44
2022/07/14 08:29:37;;;;;;;;;;;18.70;59.40;;;;;;5028373;28;83139;-43
2022/07/14 08:32:03;;;;;;;;;;;18.70;59.40;;;;;;5028639;28;82163;-44
2022/07/14 08:34:29;;;;;;;;;;;18.70;59.70;;;;;;5028435;28;83838;-43
2022/07/14 08:36:54;;;;;;;;;;;18.70;59.50;;;;;;5028075;28;83450;-44
2022/07/14 08:39:20;;;;;;;;;;;18.70;59.70;;;;;;5028372;28;81986;-44
2022/07/14 08:41:47;;;;;;;;;;;18.70;59.40;;;;;;5029092;28;83045;-43
2022/07/14 08:44:12;;;;;;;;;;;18.70;59.30;;;;;;5027971;28;83457;-43
2022/07/14 08:46:38;;;;;;;;;;;18.80;59.30;;;;;;5030599;28;82237;-43
2022/07/14 08:49:07;;;;;;;;;;;18.80;59.90;;;;;;5027638;28;84610;-43
2022/07/14 08:51:33;;;;;;;;;;;18.80;59.70;;;;;;5028247;28;82121;-44
2022/07/14 08:53:59;;;;;;;;;;;18.80;59.80;;;;;;5028366;28;82559;-43
2022/07/14 08:56:26;;;;;;;;;;;18.80;59.70;;;;;;5027935;28;82917;-43
2022/07/14 08:58:51;;;;;;;;;;;18.80;59.60;;;;;;5027887;28;82063;-41
2022/07/14 09:01:17;;;;;;;;;;;18.80;59.60;;;;;;5028022;28;82364;-43
2022/07/14 09:03:42;;;;;;;;;;;18.90;59.60;;;;;;5027890;28;83038;-43
2022/07/14 09:06:08;;;;;;;;;;;18.90;59.70;;;;;;5028621;28;81338;-43
2022/07/14 09:08:54;;;;;;;;;;;18.90;59.40;;;;;;5030868;28;81916;-45
2022/07/14 09:11:20;;;;;;;;;;;18.90;59.40;;;;;;5027941;28;81884;-43
2022/07/14 09:13:45;;;;;;;;;;;18.90;59.30;;;;;;5027433;28;82906;-44
2022/07/14 09:16:18;;;;;;;;;;;19.00;59.50;;;;;;5027473;28;83026;-43
2022/07/14 09:19:00;;;;;;;;;;;19.00;59.40;;;;;;5027909;28;82363;-43
2022/07/14 09:21:26;;;;;;;;;;;19.00;59.20;;;;;;5027891;28;82459;-44
2022/07/14 09:23:54;;;;;;;;;;;19.00;59.50;;;;;;5027784;28;82150;-45
2022/07/14 09:26:20;;;;;;;;;;;19.00;59.60;;;;;;5027677;28;82095;-43
2022/07/14 09:28:49;;;;;;;;;;;19.00;59.50;;;;;;5027506;28;82989;-43
2022/07/14 09:31:21;;;;;;;;;;;19.00;59.40;;;;;;5030439;28;83780;-42
2022/07/14 09:33:47;;;;;;;;;;;19.00;59.30;;;;;;5027226;28;83358;-43
2022/07/14 09:36:21;;;;;;;;;;;19.00;59.30;;;;;;5026973;28;84469;-44
2022/07/14 09:38:47;;;;;;;;;;;19.10;59.20;;;;;;5026761;28;82879;-43
2022/07/14 09:41:13;;;;;;;;;;;19.10;59.20;;;;;;5027212;28;83319;-44
2022/07/14 09:43:38;;;;;;;;;;;19.10;59.20;;;;;;5027575;28;83195;-43
2022/07/14 09:46:04;;;;;;;;;;;19.20;59.20;;;;;;5026957;28;81982;-43
2022/07/14 09:48:30;;;;;;;;;;;19.10;59.10;;;;;;5027303;28;84086;-44
2022/07/14 09:51:01;;;;;;;;;;;19.20;59.10;;;;;;5027295;28;83186;-44
2022/07/14 09:53:31;;;;;;;;;;;19.20;59.10;;;;;;5030486;28;81890;-43
2022/07/14 09:56:07;;;;;;;;;;;19.20;59.10;;;;;;5027494;28;83695;-44
2022/07/14 09:58:54;;;;;;;;;;;19.20;59.00;;;;;;5027107;28;82492;-43
2022/07/14 10:01:20;;;;;;;;;;;19.30;59.10;;;;;;5026997;28;84218;-43
2022/07/14 10:03:47;;;;;;;;;;;19.30;59.00;;;;;;5026236;28;83936;-43
2022/07/14 10:06:14;;;;;;;;;;;19.30;59.00;;;;;;5026846;28;81870;-43
2022/07/14 10:08:40;;;;;;;;;;;19.30;58.90;;;;;;5027232;28;83829;-42
2022/07/14 10:11:06;;;;;;;;;;;19.30;59.00;;;;;;5026973;28;83172;-44
2022/07/14 10:13:32;;;;;;;;;;;19.30;59.00;;;;;;5030024;28;81885;-44
2022/07/14 10:15:57;;;;;;;;;;;19.40;58.90;;;;;;5026845;28;82947;-43
2022/07/14 10:18:24;;;;;;;;;;;19.40;59.00;;;;;;5026708;28;81660;-43
2022/07/14 10:20:54;;;;;;;;;;;19.40;58.90;;;;;;5027012;28;81713;-43
2022/07/14 10:23:20;;;;;;;;;;;19.40;59.00;;;;;;5026842;28;82976;-43
2022/07/14 10:25:47;;;;;;;;;;;19.40;58.90;;;;;;5027170;28;83150;-43
2022/07/14 10:28:14;;;;;;;;;;;19.50;59.10;;;;;;5026064;28;83579;-44
2022/07/14 10:30:58;;;;;;;;;;;19.50;59.00;;;;;;5026441;28;84636;-44
2022/07/14 10:33:26;;;;;;;;;;;19.50;59.00;;;;;;5026670;28;81963;-43
2022/07/14 10:36:09;;;;;;;;;;;19.60;58.80;;;;;;5029018;28;83176;-43
2022/07/14 10:38:44;;;;;;;;;;;19.60;58.80;;;;;;5026673;28;81836;-43
2022/07/14 10:41:15;;;;;;;;;;;19.60;58.60;;;;;;5026683;28;82369;-44
2022/07/14 10:43:57;;;;;;;;;;;19.60;58.80;;;;;;5026413;28;82130;-43
2022/07/14 10:46:33;;;;;;;;;;;19.60;58.60;;;;;;5026673;28;81324;-44
2022/07/14 10:48:58;;;;;;;;;;;19.70;58.80;;;;;;5026678;28;82232;-43
2022/07/14 10:51:28;;;;;;;;;;;19.70;58.60;;;;;;5026339;28;82922;-43
2022/07/14 10:54:13;;;;;;;;;;;19.70;58.60;;;;;;5026039;28;83175;-43
2022/07/14 10:56:39;;;;;;;;;;;19.70;58.60;;;;;;5026679;28;83330;-43
2022/07/14 10:59:24;;;;;;;;;;;19.80;58.60;;;;;;5028923;28;82887;-43
2022/07/14 11:02:08;;;;;;;;;;;19.80;58.70;;;;;;5026366;28;82995;-44
2022/07/14 11:04:52;;;;;;;;;;;19.80;58.50;;;;;;5024990;28;85197;-43
2022/07/14 11:07:36;;;;;;;;;;;19.80;58.60;;;;;;5026202;28;82076;-44
2022/07/14 11:10:25;;;;;;;;;;;19.80;58.60;;;;;;5025954;28;82872;-43
2022/07/14 11:12:59;;;;;;;;;;;19.90;58.50;;;;;;5026326;28;82372;-43
2022/07/14 11:15:40;;;;;;;;;;;19.90;58.50;;;;;;5026202;28;82080;-45
2022/07/14 11:18:14;;;;;;;;;;;19.90;58.50;;;;;;5025968;28;82826;-44
2022/07/14 11:20:55;;;;;;;;;;;20.00;58.40;;;;;;5025268;28;84450;-43
2022/07/14 11:23:22;;;;;;;;;;;20.00;58.50;;;;;;5028465;28;81973;-44
2022/07/14 11:25:48;;;;;;;;;;;20.00;58.50;;;;;;5025364;28;84380;-43
2022/07/14 11:28:31;;;;;;;;;;;20.00;58.40;;;;;;5026105;28;82095;-43
2022/07/14 11:31:17;;;;;;;;;;;20.10;58.40;;;;;;5025965;28;82626;-44
2022/07/14 11:36:37;;;;;;;;;;;20.10;58.40;;;;;;5024061;28;82324;-44
2022/07/14 11:39:15;;;;;;;;;;;20.10;58.30;;;;;;5026417;28;82726;-43
2022/07/14 11:41:45;;;;;;;;;;;20.20;58.40;;;;;;5025631;28;82995;-43
2022/07/14 11:44:29;;;;;;;;;;;20.20;58.20;;;;;;5025419;28;82166;-43
2022/07/14 11:46:58;;;;;;;;;;;20.20;58.20;;;;;;5027352;28;82908;-43
2022/07/14 11:49:25;;;;;;;;;;;20.30;58.20;;;;;;5025570;28;82088;-42
2022/07/14 11:51:51;;;;;;;;;;;20.30;58.20;;;;;;5025546;28;82574;-44
2022/07/14 11:54:17;;;;;;;;;;;20.30;58.20;;;;;;5025913;28;82161;-44
2022/07/14 11:56:43;;;;;;;;;;;20.30;58.20;;;;;;5026369;28;82146;-43
2022/07/14 11:59:16;;;;;;;;;;;20.30;58.20;;;;;;5028718;28;82389;-45
2022/07/14 12:01:43;;;;;;;;;;;20.40;58.10;;;;;;5029018;28;83146;-43
2022/07/14 12:04:09;;;;;;;;;;;20.40;58.00;;;;;;5029493;28;81233;-41
2022/07/14 12:06:37;;;;;;;;;;;20.40;57.90;;;;;;5028767;28;83374;-44
2022/07/14 12:09:02;;;;;;;;;;;20.50;58.00;;;;;;5031312;28;84502;-44
2022/07/14 12:11:28;;;;;;;;;;;20.50;58.00;;;;;;5028126;28;83028;-44
2022/07/14 12:13:53;;;;;;;;;;;20.50;58.10;;;;;;5028982;28;83215;-43
2022/07/14 12:16:20;;;;;;;;;;;20.50;57.80;;;;;;5028429;28;82266;-43
2022/07/14 12:18:45;;;;;;;;;;;20.50;57.90;;;;;;5028659;28;83720;-45
2022/07/14 12:21:11;;;;;;;;;;;20.60;58.00;;;;;;5028640;28;82870;-43
2022/07/14 12:23:57;;;;;;;;;;;20.60;57.80;;;;;;5028715;28;82106;-42
2022/07/14 12:26:23;;;;;;;;;;;20.60;57.70;;;;;;5028467;28;82154;-44
2022/07/14 12:28:49;;;;;;;;;;;20.70;57.90;;;;;;5031724;28;81347;-43
2022/07/14 12:31:15;;;;;;;;;;;20.70;57.80;;;;;;5028603;28;82062;-43
2022/07/14 12:33:41;;;;;;;;;;;20.70;57.70;;;;;;5028213;28;83748;-44
2022/07/14 12:36:13;;;;;;;;;;;20.70;57.70;;;;;;5027494;28;82995;-43
2022/07/14 12:38:40;;;;;;;;;;;20.80;57.80;;;;;;5028154;28;84720;-43
2022/07/14 12:41:06;;;;;;;;;;;20.80;57.80;;;;;;5028504;28;83035;-44
2022/07/14 12:43:32;;;;;;;;;;;20.80;57.70;;;;;;5028569;28;81910;-43
2022/07/14 12:46:05;;;;;;;;;;;20.80;57.60;;;;;;5027738;28;82935;-43
2022/07/14 12:48:34;;;;;;;;;;;20.80;57.40;;;;;;5028297;28;83211;-44
2022/07/14 12:51:15;;;;;;;;;;;20.90;57.50;;;;;;5030851;28;81877;-43
2022/07/14 12:53:59;;;;;;;;;;;20.80;57.40;;;;;;5028591;28;82272;-43
2022/07/14 12:56:26;;;;;;;;;;;20.90;57.50;;;;;;5028092;28;82017;-43
2022/07/14 12:58:52;;;;;;;;;;;20.90;57.60;;;;;;5028239;28;82544;-44
2022/07/14 13:01:18;;;;;;;;;;;20.90;57.40;;;;;;5027539;28;83721;-43
2022/07/14 13:03:57;;;;;;;;;;;21.00;57.40;;;;;;5028068;28;82081;-43
2022/07/14 13:06:23;;;;;;;;;;;21.00;57.60;;;;;;5028190;28;82727;-44
2022/07/14 13:08:49;;;;;;;;;;;21.10;57.60;;;;;;5027678;28;83000;-43
2022/07/14 13:11:14;;;;;;;;;;;21.10;57.60;;;;;;5028059;28;81975;-43
2022/07/14 13:13:41;;;;;;;;;;;21.10;57.50;;;;;;5030682;28;82418;-44
2022/07/14 13:16:17;;;;;;;;;;;21.20;57.30;;;;;;5027762;28;82496;-43
2022/07/14 13:19:02;;;;;;;;;;;21.20;57.40;;;;;;5028216;28;83860;-43
2022/07/14 13:21:48;;;;;;;;;;;21.20;57.40;;;;;;5027603;28;84446;-43
2022/07/14 13:24:14;;;;;;;;;;;21.20;57.40;;;;;;5027399;28;81993;-43
2022/07/14 13:26:40;;;;;;;;;;;21.30;57.30;;;;;;5026965;28;83024;-43
2022/07/14 13:29:07;;;;;;;;;;;21.30;57.30;;;;;;5027437;28;84404;-42
2022/07/14 13:31:32;;;;;;;;;;;21.30;57.40;;;;;;5027615;28;82089;-44
2022/07/14 13:33:58;;;;;;;;;;;21.40;57.40;;;;;;5027957;28;82523;-43
2022/07/14 13:36:24;;;;;;;;;;;21.30;57.10;;;;;;5029608;28;84597;-43
2022/07/14 13:38:50;;;;;;;;;;;21.40;57.20;;;;;;5027862;28;82285;-43
2022/07/14 13:41:16;;;;;;;;;;;21.40;57.30;;;;;;5027506;28;82885;-43
2022/07/14 13:43:42;;;;;;;;;;;21.40;57.20;;;;;;5027926;28;81328;-43
2022/07/14 13:46:08;;;;;;;;;;;21.40;57.00;;;;;;5026953;28;82295;-43
2022/07/14 13:48:34;;;;;;;;;;;21.50;57.10;;;;;;5027470;28;83060;-43
2022/07/14 13:53:43;;;;;;;;;;;21.50;56.90;;;;;;5027581;28;82546;-43
2022/07/14 13:56:09;;;;;;;;;;;21.60;56.80;;;;;;5026780;28;82803;-43
2022/07/14 13:58:34;;;;;;;;;;;21.60;56.80;;;;;;5029876;28;82140;-43
2022/07/14 14:01:00;;;;;;;;;;;21.60;56.80;;;;;;5027015;28;83190;-43
2022/07/14 14:03:26;;;;;;;;;;;21.60;56.60;;;;;;5027200;28;82096;-43
2022/07/14 14:05:51;;;;;;;;;;;21.70;56.70;;;;;;5026923;28;84044;-43
2022/07/14 14:08:17;;;;;;;;;;;21.80;56.40;;;;;;5027636;28;81294;-43
2022/07/14 14:10:43;;;;;;;;;;;21.80;56.40;;;;;;5026607;28;81933;-43
2022/07/14 14:13:09;;;;;;;;;;;21.80;56.20;;;;;;5026997;28;81846;-43
2022/07/14 14:15:34;;;;;;;;;;;21.80;56.40;;;;;;5026117;28;84019;-43
2022/07/14 14:18:00;;;;;;;;;;;21.90;56.50;;;;;;5026959;28;82136;-44
2022/07/14 14:20:26;;;;;;;;;;;21.90;56.30;;;;;;5028750;28;82223;-43
2022/07/14 14:22:51;;;;;;;;;;;21.90;56.30;;;;;;5027135;28;82109;-44
2022/07/14 14:25:17;;;;;;;;;;;22.00;56.50;;;;;;5026881;28;81979;-43
2022/07/14 14:27:43;;;;;;;;;;;21.90;56.50;;;;;;5026560;28;82975;-44
2022/07/14 14:30:08;;;;;;;;;;;22.00;56.60;;;;;;5026785;28;82606;-44
2022/07/14 14:32:34;;;;;;;;;;;22.00;56.70;;;;;;5027119;28;82453;-43
2022/07/14 14:34:59;;;;;;;;;;;22.00;56.80;;;;;;5026397;28;83210;-44
2022/07/14 14:37:25;;;;;;;;;;;22.00;56.20;;;;;;5026401;28;81991;-43
2022/07/14 14:39:50;;;;;;;;;;;22.00;56.40;;;;;;5028607;28;82905;-44
2022/07/14 14:42:16;;;;;;;;;;;21.90;56.40;;;;;;5026389;28;82164;-43
2022/07/14 14:44:42;;;;;;;;;;;22.00;56.50;;;;;;5026153;28;83801;-43